25VA weather

Toddsbury Farm Airport
Aylett, Virginia, United States

Public forecast

Using degrees Fahrenheit for public forecast. Weather courtesy of forecast.io.

METAR (pilot weather report)

Closest report is Tappahannock-Essex County Airport, 10.2 nm (18.9 km) ENE. Retrieved 2019/03/22 07:35 UTC (9 minutes ago):

KXSA 220735Z AUTO 25007KT 10SM -DZ OVC032 06/05 A2960 RMK AO2 T00630053

TAF (pilot weather forecast)

Closest forecast is Richmond International Airport, 21.4 nm (39.6 km) SSW. Retrieved 2019/03/22 06:46 UTC (58 minutes ago):

TAF KRIC 220544Z 2206/2306 28009G15KT P6SM SCT060 OVC100 FM220900 28009KT P6SM SKC FM221900 27017G30KT P6SM BKN050 FM230000 30014G23KT P6SM FEW250